KCSV/CSV METAR and TAF weather

Enter ICAO airport designator
Station Type Date Time Source
KCSV METAR 2018/04/26 14:53 UTC NOAA

KCSV 261453Z AUTO 18003KT 8SM -RA OVC055 11/09 A2994 RMK AO2 SLP135 P0004 60007 T01060094 51007


Station Type Date Time Source
KCSV Decoded METAR 2018/04/26 14:53 UTC NOAA

CROSSVILLE MEMORIAL AIRPORT , TN, United States (KCSV) 35-57N 85-05W 570M
Apr 26, 2018 - 10:53 AM EDT / 2018.04.26 1453 UTC
Wind: from the S (180 degrees) at 3 MPH (3 KT):0
Visibility: 8 mile(s):0
Sky conditions: overcast
Weather: light rain
Precipitation last hour: 0.04 inches
Temperature: 51.1 F (10.6 C)
Dew Point: 48.9 F (9.4 C)
Relative Humidity: 92%
Pressure (altimeter): 29.94 in. Hg (1013 hPa)
Pressure tendency: 0.02 inches (0.7 hPa) higher than three hours ago
ob: KCSV 261453Z AUTO 18003KT 8SM -RA OVC055 11/09 A2994 RMK AO2 SLP135 P0004 60007 T01060094 51007
cycle: 15

Station Type Date Time Source
KCSV TAF 2018/04/26 14:27 UTC NOAA

TAF
AMD KCSV 261424Z 2614/2712 VRB03KT P6SM OVC100
FM261600 08005KT 5SM -RA BR SCT030 OVC080
FM261800 05005KT 4SM -RA BR BKN025 OVC060
FM270300 00000KT 4SM BR OVC015
FM270900 00000KT 4SM BR OVC007


Example: see airport list